Terminal Aerodrome Forecast
Issued by NWS Sioux Falls, SD

Home | Current Version | Previous Version | Graphics & Text | Print | Product List | Glossary On
Versions: 1 2 3 4 5 6 7 8 9 10 11 12 13
000
FTUS43 KFSD 280622 RRA
TAFHON
TAF
KHON 280622Z 2806/2906 15010KT P6SM BKN250
     FM281100 15006KT 6SM BR BKN200
     FM281700 30010KT P6SM SCT008 BKN200
     FM282100 33016G24KT P6SM SCT015 BKN150
     FM290100 33021G32KT P6SM BKN015=

USA.gov is the U.S. government's official web portal to all federal, state and local government web resources and services.